sensor_id;sensor_type;location;lat;lon;timestamp;P1;durP1;ratioP1;P2;durP2;ratioP2
65545;SDS011;52177;55.968;37.498;2023-04-25T00:00:28;13.50;;;5.97;;
65545;SDS011;52177;55.968;37.498;2023-04-25T00:00:59;10.48;;;5.25;;
65545;SDS011;52177;55.968;37.498;2023-04-25T00:01:29;13.15;;;5.38;;
65545;SDS011;52177;55.968;37.498;2023-04-25T00:01:59;14.68;;;6.00;;
65545;SDS011;52177;55.968;37.498;2023-04-25T00:02:30;15.20;;;5.25;;
65545;SDS011;52177;55.968;37.498;2023-04-25T00:03:01;13.15;;;5.65;;
65545;SDS011;52177;55.968;37.498;2023-04-25T00:03:32;21.08;;;5.40;;
65545;SDS011;52177;55.968;37.498;2023-04-25T00:04:02;13.48;;;5.95;;
65545;SDS011;52177;55.968;37.498;2023-04-25T00:04:33;14.85;;;5.00;;
65545;SDS011;52177;55.968;37.498;2023-04-25T00:05:03;13.50;;;5.80;;
65545;SDS011;52177;55.968;37.498;2023-04-25T00:05:34;12.40;;;5.32;;
65545;SDS011;52177;55.968;37.498;2023-04-25T00:06:07;11.05;;;5.45;;
65545;SDS011;52177;55.968;37.498;2023-04-25T00:06:38;10.93;;;4.90;;
65545;SDS011;52177;55.968;37.498;2023-04-25T00:07:09;13.57;;;5.88;;
65545;SDS011;52177;55.968;37.498;2023-04-25T00:07:40;9.95;;;5.32;;
65545;SDS011;52177;55.968;37.498;2023-04-25T00:08:12;10.70;;;5.43;;
65545;SDS011;52177;55.968;37.498;2023-04-25T00:08:43;14.38;;;5.55;;
65545;SDS011;52177;55.968;37.498;2023-04-25T00:09:13;10.45;;;5.45;;
65545;SDS011;52177;55.968;37.498;2023-04-25T00:09:44;11.00;;;5.10;;
65545;SDS011;52177;55.968;37.498;2023-04-25T00:10:15;11.15;;;5.68;;
65545;SDS011;52177;55.968;37.498;2023-04-25T00:10:45;12.70;;;5.40;;
65545;SDS011;52177;55.968;37.498;2023-04-25T00:11:16;9.60;;;5.25;;
65545;SDS011;52177;55.968;37.498;2023-04-25T00:11:46;9.65;;;4.88;;
65545;SDS011;52177;55.968;37.498;2023-04-25T00:12:16;8.40;;;4.50;;
65545;SDS011;52177;55.968;37.498;2023-04-25T00:12:47;12.02;;;5.80;;
65545;SDS011;52177;55.968;37.498;2023-04-25T00:13:17;12.60;;;5.53;;
65545;SDS011;52177;55.968;37.498;2023-04-25T00:13:49;12.07;;;5.15;;
65545;SDS011;52177;55.968;37.498;2023-04-25T00:14:24;6.45;;;5.22;;
65545;SDS011;52177;55.968;37.498;2023-04-25T00:14:55;11.25;;;5.53;;
65545;SDS011;52177;55.968;37.498;2023-04-25T00:15:26;10.65;;;5.45;;
65545;SDS011;52177;55.968;37.498;2023-04-25T00:15:57;13.20;;;5.10;;
65545;SDS011;52177;55.968;37.498;2023-04-25T00:16:28;13.73;;;5.30;;
65545;SDS011;52177;55.968;37.498;2023-04-25T00:17:00;7.80;;;5.00;;
65545;SDS011;52177;55.968;37.498;2023-04-25T00:17:31;13.80;;;5.47;;
65545;SDS011;52177;55.968;37.498;2023-04-25T00:18:01;10.68;;;4.97;;
65545;SDS011;52177;55.968;37.498;2023-04-25T00:18:32;8.88;;;5.07;;
65545;SDS011;52177;55.968;37.498;2023-04-25T00:19:03;9.50;;;5.30;;
65545;SDS011;52177;55.968;37.498;2023-04-25T00:19:33;9.82;;;4.88;;
65545;SDS011;52177;55.968;37.498;2023-04-25T00:20:05;10.30;;;5.65;;
65545;SDS011;52177;55.968;37.498;2023-04-25T00:20:36;11.77;;;4.90;;
65545;SDS011;52177;55.968;37.498;2023-04-25T00:21:07;14.50;;;5.15;;
65545;SDS011;52177;55.968;37.498;2023-04-25T00:21:37;10.93;;;5.00;;
65545;SDS011;52177;55.968;37.498;2023-04-25T00:22:10;14.63;;;5.15;;
65545;SDS011;52177;55.968;37.498;2023-04-25T00:22:41;10.65;;;5.00;;
65545;SDS011;52177;55.968;37.498;2023-04-25T00:23:12;13.80;;;5.78;;
65545;SDS011;52177;55.968;37.498;2023-04-25T00:23:47;11.18;;;5.35;;
65545;SDS011;52177;55.968;37.498;2023-04-25T00:24:17;7.72;;;5.10;;
65545;SDS011;52177;55.968;37.498;2023-04-25T00:24:48;12.10;;;5.22;;
65545;SDS011;52177;55.968;37.498;2023-04-25T00:25:18;16.35;;;5.55;;
65545;SDS011;52177;55.968;37.498;2023-04-25T00:25:49;16.20;;;5.65;;
65545;SDS011;52177;55.968;37.498;2023-04-25T00:26:20;13.25;;;5.53;;
65545;SDS011;52177;55.968;37.498;2023-04-25T00:26:53;7.82;;;4.97;;
65545;SDS011;52177;55.968;37.498;2023-04-25T00:27:24;9.50;;;5.13;;
65545;SDS011;52177;55.968;37.498;2023-04-25T00:27:54;11.93;;;5.50;;
65545;SDS011;52177;55.968;37.498;2023-04-25T00:28:25;13.63;;;5.20;;
65545;SDS011;52177;55.968;37.498;2023-04-25T00:28:55;10.63;;;5.25;;
65545;SDS011;52177;55.968;37.498;2023-04-25T00:29:25;12.15;;;5.40;;
65545;SDS011;52177;55.968;37.498;2023-04-25T00:29:56;11.50;;;4.97;;
65545;SDS011;52177;55.968;37.498;2023-04-25T00:30:26;9.88;;;5.25;;
65545;SDS011;52177;55.968;37.498;2023-04-25T00:30:56;11.15;;;5.28;;
65545;SDS011;52177;55.968;37.498;2023-04-25T00:31:27;15.15;;;5.78;;
65545;SDS011;52177;55.968;37.498;2023-04-25T00:31:58;9.35;;;4.75;;
65545;SDS011;52177;55.968;37.498;2023-04-25T00:32:29;8.57;;;5.35;;
65545;SDS011;52177;55.968;37.498;2023-04-25T00:32:59;9.95;;;5.32;;
65545;SDS011;52177;55.968;37.498;2023-04-25T00:33:29;13.80;;;5.57;;
65545;SDS011;52177;55.968;37.498;2023-04-25T00:34:00;14.80;;;5.97;;
65545;SDS011;52177;55.968;37.498;2023-04-25T00:34:30;10.77;;;5.10;;
65545;SDS011;52177;55.968;37.498;2023-04-25T00:35:01;12.13;;;5.13;;
65545;SDS011;52177;55.968;37.498;2023-04-25T00:35:31;10.45;;;5.30;;
65545;SDS011;52177;55.968;37.498;2023-04-25T00:36:02;9.80;;;4.85;;
65545;SDS011;52177;55.968;37.498;2023-04-25T00:36:33;12.13;;;5.85;;
65545;SDS011;52177;55.968;37.498;2023-04-25T00:37:03;8.88;;;5.22;;
65545;SDS011;52177;55.968;37.498;2023-04-25T00:37:33;10.23;;;5.53;;
65545;SDS011;52177;55.968;37.498;2023-04-25T00:38:04;11.23;;;5.20;;
65545;SDS011;52177;55.968;37.498;2023-04-25T00:38:34;12.07;;;5.32;;
65545;SDS011;52177;55.968;37.498;2023-04-25T00:39:05;12.98;;;5.38;;
65545;SDS011;52177;55.968;37.498;2023-04-25T00:39:36;9.68;;;5.30;;
65545;SDS011;52177;55.968;37.498;2023-04-25T00:40:06;9.60;;;5.18;;
65545;SDS011;52177;55.968;37.498;2023-04-25T00:40:37;10.98;;;4.93;;
65545;SDS011;52177;55.968;37.498;2023-04-25T00:41:08;10.68;;;5.20;;
65545;SDS011;52177;55.968;37.498;2023-04-25T00:41:38;11.27;;;5.10;;
65545;SDS011;52177;55.968;37.498;2023-04-25T00:42:09;11.98;;;5.32;;
65545;SDS011;52177;55.968;37.498;2023-04-25T00:42:40;11.05;;;5.50;;
65545;SDS011;52177;55.968;37.498;2023-04-25T00:43:11;11.35;;;5.50;;
65545;SDS011;52177;55.968;37.498;2023-04-25T00:43:41;13.63;;;5.35;;
65545;SDS011;52177;55.968;37.498;2023-04-25T00:44:13;11.02;;;5.15;;
65545;SDS011;52177;55.968;37.498;2023-04-25T00:44:46;10.15;;;5.18;;
65545;SDS011;52177;55.968;37.498;2023-04-25T00:45:17;11.52;;;4.95;;
65545;SDS011;52177;55.968;37.498;2023-04-25T00:45:48;12.25;;;5.38;;
65545;SDS011;52177;55.968;37.498;2023-04-25T00:46:20;12.90;;;5.13;;
65545;SDS011;52177;55.968;37.498;2023-04-25T00:46:51;9.52;;;4.65;;
65545;SDS011;52177;55.968;37.498;2023-04-25T00:47:22;12.70;;;5.53;;
65545;SDS011;52177;55.968;37.498;2023-04-25T00:47:53;8.52;;;4.75;;
65545;SDS011;52177;55.968;37.498;2023-04-25T00:48:24;12.10;;;5.20;;
65545;SDS011;52177;55.968;37.498;2023-04-25T00:48:54;9.95;;;5.47;;
65545;SDS011;52177;55.968;37.498;2023-04-25T00:49:25;7.35;;;5.32;;
65545;SDS011;52177;55.968;37.498;2023-04-25T00:49:55;8.40;;;5.47;;
65545;SDS011;52177;55.968;37.498;2023-04-25T00:50:25;15.27;;;5.80;;
65545;SDS011;52177;55.968;37.498;2023-04-25T00:50:59;10.45;;;5.00;;
65545;SDS011;52177;55.968;37.498;2023-04-25T00:51:30;11.30;;;5.15;;
65545;SDS011;52177;55.968;37.498;2023-04-25T00:52:02;10.38;;;5.10;;
65545;SDS011;52177;55.968;37.498;2023-04-25T00:52:32;10.98;;;5.50;;
65545;SDS011;52177;55.968;37.498;2023-04-25T00:53:03;7.90;;;5.22;;
65545;SDS011;52177;55.968;37.498;2023-04-25T00:53:33;9.25;;;5.35;;
65545;SDS011;52177;55.968;37.498;2023-04-25T00:54:04;12.18;;;5.10;;
65545;SDS011;52177;55.968;37.498;2023-04-25T00:54:34;13.75;;;5.57;;
65545;SDS011;52177;55.968;37.498;2023-04-25T00:55:05;8.20;;;5.05;;
65545;SDS011;52177;55.968;37.498;2023-04-25T00:55:35;11.88;;;5.75;;
65545;SDS011;52177;55.968;37.498;2023-04-25T00:56:06;10.93;;;5.55;;
65545;SDS011;52177;55.968;37.498;2023-04-25T00:56:36;14.80;;;5.70;;
65545;SDS011;52177;55.968;37.498;2023-04-25T00:57:07;11.93;;;5.53;;
65545;SDS011;52177;55.968;37.498;2023-04-25T00:57:38;10.60;;;5.43;;
65545;SDS011;52177;55.968;37.498;2023-04-25T00:58:09;9.73;;;5.80;;
65545;SDS011;52177;55.968;37.498;2023-04-25T00:58:40;10.27;;;5.50;;
65545;SDS011;52177;55.968;37.498;2023-04-25T00:59:11;10.77;;;5.75;;
65545;SDS011;52177;55.968;37.498;2023-04-25T00:59:42;11.63;;;5.47;;
65545;SDS011;52177;55.968;37.498;2023-04-25T01:00:16;5.65;;;5.10;;
65545;SDS011;52177;55.968;37.498;2023-04-25T01:00:48;11.65;;;5.22;;
65545;SDS011;52177;55.968;37.498;2023-04-25T01:01:20;9.20;;;5.25;;
65545;SDS011;52177;55.968;37.498;2023-04-25T01:01:50;11.70;;;5.93;;
65545;SDS011;52177;55.968;37.498;2023-04-25T01:02:21;10.43;;;5.40;;
65545;SDS011;52177;55.968;37.498;2023-04-25T01:02:51;14.18;;;5.43;;
65545;SDS011;52177;55.968;37.498;2023-04-25T01:03:22;20.38;;;5.80;;
65545;SDS011;52177;55.968;37.498;2023-04-25T01:03:53;10.55;;;5.93;;
65545;SDS011;52177;55.968;37.498;2023-04-25T01:04:24;11.90;;;5.60;;
65545;SDS011;52177;55.968;37.498;2023-04-25T01:04:57;10.02;;;5.63;;
65545;SDS011;52177;55.968;37.498;2023-04-25T01:05:27;11.38;;;5.72;;
65545;SDS011;52177;55.968;37.498;2023-04-25T01:05:58;7.78;;;4.90;;
65545;SDS011;52177;55.968;37.498;2023-04-25T01:06:28;11.02;;;5.80;;
65545;SDS011;52177;55.968;37.498;2023-04-25T01:07:00;13.65;;;5.38;;
65545;SDS011;52177;55.968;37.498;2023-04-25T01:07:30;11.25;;;4.78;;
65545;SDS011;52177;55.968;37.498;2023-04-25T01:08:00;10.77;;;6.18;;
65545;SDS011;52177;55.968;37.498;2023-04-25T01:08:31;10.45;;;5.93;;
65545;SDS011;52177;55.968;37.498;2023-04-25T01:09:01;11.20;;;5.93;;
65545;SDS011;52177;55.968;37.498;2023-04-25T01:09:34;11.60;;;5.60;;
65545;SDS011;52177;55.968;37.498;2023-04-25T01:10:05;10.27;;;5.40;;
65545;SDS011;52177;55.968;37.498;2023-04-25T01:10:36;14.15;;;6.13;;
65545;SDS011;52177;55.968;37.498;2023-04-25T01:11:07;11.77;;;5.60;;
65545;SDS011;52177;55.968;37.498;2023-04-25T01:11:37;13.05;;;5.95;;
65545;SDS011;52177;55.968;37.498;2023-04-25T01:12:10;15.05;;;5.35;;
65545;SDS011;52177;55.968;37.498;2023-04-25T01:12:40;12.18;;;5.43;;
65545;SDS011;52177;55.968;37.498;2023-04-25T01:13:11;12.25;;;5.40;;
65545;SDS011;52177;55.968;37.498;2023-04-25T01:13:41;7.88;;;5.45;;
65545;SDS011;52177;55.968;37.498;2023-04-25T01:14:12;7.93;;;5.55;;
65545;SDS011;52177;55.968;37.498;2023-04-25T01:14:42;12.15;;;6.20;;
65545;SDS011;52177;55.968;37.498;2023-04-25T01:15:13;10.18;;;5.22;;
65545;SDS011;52177;55.968;37.498;2023-04-25T01:15:43;10.80;;;5.57;;
65545;SDS011;52177;55.968;37.498;2023-04-25T01:16:13;10.63;;;5.80;;
65545;SDS011;52177;55.968;37.498;2023-04-25T01:16:45;14.85;;;5.88;;
65545;SDS011;52177;55.968;37.498;2023-04-25T01:17:15;16.08;;;5.50;;
65545;SDS011;52177;55.968;37.498;2023-04-25T01:17:46;12.25;;;5.53;;
65545;SDS011;52177;55.968;37.498;2023-04-25T01:18:16;9.60;;;5.40;;
65545;SDS011;52177;55.968;37.498;2023-04-25T01:18:47;11.63;;;5.95;;
65545;SDS011;52177;55.968;37.498;2023-04-25T01:19:18;16.38;;;5.50;;
65545;SDS011;52177;55.968;37.498;2023-04-25T01:19:49;11.20;;;5.30;;
65545;SDS011;52177;55.968;37.498;2023-04-25T01:20:20;15.32;;;5.95;;
65545;SDS011;52177;55.968;37.498;2023-04-25T01:20:53;11.43;;;6.18;;
65545;SDS011;52177;55.968;37.498;2023-04-25T01:21:24;10.05;;;5.40;;
65545;SDS011;52177;55.968;37.498;2023-04-25T01:21:57;11.82;;;5.68;;
65545;SDS011;52177;55.968;37.498;2023-04-25T01:22:27;10.73;;;5.90;;
65545;SDS011;52177;55.968;37.498;2023-04-25T01:22:58;12.43;;;6.07;;
65545;SDS011;52177;55.968;37.498;2023-04-25T01:23:29;8.88;;;5.68;;
65545;SDS011;52177;55.968;37.498;2023-04-25T01:24:00;10.63;;;5.93;;
65545;SDS011;52177;55.968;37.498;2023-04-25T01:24:31;9.50;;;5.60;;
65545;SDS011;52177;55.968;37.498;2023-04-25T01:25:02;9.95;;;5.57;;
65545;SDS011;52177;55.968;37.498;2023-04-25T01:25:33;10.80;;;5.28;;
65545;SDS011;52177;55.968;37.498;2023-04-25T01:26:03;14.43;;;6.10;;
65545;SDS011;52177;55.968;37.498;2023-04-25T01:26:34;11.15;;;5.60;;
65545;SDS011;52177;55.968;37.498;2023-04-25T01:27:05;10.50;;;5.30;;
65545;SDS011;52177;55.968;37.498;2023-04-25T01:27:36;10.63;;;5.70;;
65545;SDS011;52177;55.968;37.498;2023-04-25T01:28:06;8.77;;;5.65;;
65545;SDS011;52177;55.968;37.498;2023-04-25T01:28:38;13.13;;;5.95;;
65545;SDS011;52177;55.968;37.498;2023-04-25T01:29:12;13.38;;;6.10;;
65545;SDS011;52177;55.968;37.498;2023-04-25T01:29:42;10.48;;;5.78;;
65545;SDS011;52177;55.968;37.498;2023-04-25T01:30:13;10.70;;;5.63;;
65545;SDS011;52177;55.968;37.498;2023-04-25T01:30:43;12.93;;;6.00;;
65545;SDS011;52177;55.968;37.498;2023-04-25T01:31:15;16.80;;;6.47;;
65545;SDS011;52177;55.968;37.498;2023-04-25T01:31:46;14.70;;;5.68;;
65545;SDS011;52177;55.968;37.498;2023-04-25T01:32:17;11.13;;;5.68;;
65545;SDS011;52177;55.968;37.498;2023-04-25T01:32:48;10.25;;;6.40;;
65545;SDS011;52177;55.968;37.498;2023-04-25T01:33:19;9.75;;;5.55;;
65545;SDS011;52177;55.968;37.498;2023-04-25T01:33:52;10.68;;;5.68;;
65545;SDS011;52177;55.968;37.498;2023-04-25T01:34:22;15.82;;;6.50;;
65545;SDS011;52177;55.968;37.498;2023-04-25T01:34:53;11.68;;;5.78;;
65545;SDS011;52177;55.968;37.498;2023-04-25T01:35:23;14.45;;;5.90;;
65545;SDS011;52177;55.968;37.498;2023-04-25T01:35:54;18.52;;;6.68;;
65545;SDS011;52177;55.968;37.498;2023-04-25T01:36:25;12.93;;;5.90;;
65545;SDS011;52177;55.968;37.498;2023-04-25T01:36:57;11.35;;;5.80;;
65545;SDS011;52177;55.968;37.498;2023-04-25T01:37:29;10.52;;;5.68;;
65545;SDS011;52177;55.968;37.498;2023-04-25T01:38:00;11.07;;;5.80;;
65545;SDS011;52177;55.968;37.498;2023-04-25T01:38:30;12.60;;;5.93;;
65545;SDS011;52177;55.968;37.498;2023-04-25T01:39:02;15.52;;;6.47;;
65545;SDS011;52177;55.968;37.498;2023-04-25T01:39:32;17.50;;;6.05;;
65545;SDS011;52177;55.968;37.498;2023-04-25T01:40:03;11.68;;;6.00;;
65545;SDS011;52177;55.968;37.498;2023-04-25T01:40:36;12.02;;;5.95;;
65545;SDS011;52177;55.968;37.498;2023-04-25T01:41:09;17.13;;;6.72;;
65545;SDS011;52177;55.968;37.498;2023-04-25T01:41:39;11.75;;;6.40;;
65545;SDS011;52177;55.968;37.498;2023-04-25T01:42:10;15.07;;;6.47;;
65545;SDS011;52177;55.968;37.498;2023-04-25T01:42:43;10.80;;;5.90;;
65545;SDS011;52177;55.968;37.498;2023-04-25T01:43:14;16.80;;;6.43;;
65545;SDS011;52177;55.968;37.498;2023-04-25T01:43:45;9.60;;;6.00;;
65545;SDS011;52177;55.968;37.498;2023-04-25T01:44:15;12.80;;;5.50;;
65545;SDS011;52177;55.968;37.498;2023-04-25T01:44:46;15.07;;;6.40;;
65545;SDS011;52177;55.968;37.498;2023-04-25T01:45:16;12.52;;;5.82;;
65545;SDS011;52177;55.968;37.498;2023-04-25T01:45:48;14.80;;;6.93;;
65545;SDS011;52177;55.968;37.498;2023-04-25T01:46:19;10.05;;;5.78;;
65545;SDS011;52177;55.968;37.498;2023-04-25T01:46:49;17.98;;;6.45;;
65545;SDS011;52177;55.968;37.498;2023-04-25T01:47:20;13.50;;;6.43;;
65545;SDS011;52177;55.968;37.498;2023-04-25T01:47:50;15.43;;;6.50;;
65545;SDS011;52177;55.968;37.498;2023-04-25T01:48:21;14.80;;;6.13;;
65545;SDS011;52177;55.968;37.498;2023-04-25T01:48:51;9.50;;;5.95;;
65545;SDS011;52177;55.968;37.498;2023-04-25T01:49:21;20.98;;;6.25;;
65545;SDS011;52177;55.968;37.498;2023-04-25T01:49:52;17.23;;;6.47;;
65545;SDS011;52177;55.968;37.498;2023-04-25T01:50:22;9.38;;;6.28;;
65545;SDS011;52177;55.968;37.498;2023-04-25T01:50:52;13.90;;;5.65;;
65545;SDS011;52177;55.968;37.498;2023-04-25T01:51:23;14.98;;;6.90;;
65545;SDS011;52177;55.968;37.498;2023-04-25T01:51:53;12.95;;;6.30;;
65545;SDS011;52177;55.968;37.498;2023-04-25T01:52:23;10.30;;;6.13;;
65545;SDS011;52177;55.968;37.498;2023-04-25T01:52:54;17.00;;;6.57;;
65545;SDS011;52177;55.968;37.498;2023-04-25T01:53:25;16.38;;;6.35;;
65545;SDS011;52177;55.968;37.498;2023-04-25T01:53:56;15.90;;;6.07;;
65545;SDS011;52177;55.968;37.498;2023-04-25T01:54:27;10.88;;;6.78;;
65545;SDS011;52177;55.968;37.498;2023-04-25T01:54:57;10.23;;;5.82;;
65545;SDS011;52177;55.968;37.498;2023-04-25T01:55:32;13.07;;;6.43;;
65545;SDS011;52177;55.968;37.498;2023-04-25T01:56:02;11.10;;;6.40;;
65545;SDS011;52177;55.968;37.498;2023-04-25T01:56:34;19.17;;;6.25;;
65545;SDS011;52177;55.968;37.498;2023-04-25T01:57:07;14.48;;;5.88;;
65545;SDS011;52177;55.968;37.498;2023-04-25T01:57:37;14.75;;;6.30;;
65545;SDS011;52177;55.968;37.498;2023-04-25T01:58:08;14.88;;;6.13;;
65545;SDS011;52177;55.968;37.498;2023-04-25T01:58:42;16.52;;;6.40;;
65545;SDS011;52177;55.968;37.498;2023-04-25T01:59:13;15.80;;;6.53;;
65545;SDS011;52177;55.968;37.498;2023-04-25T01:59:43;14.40;;;6.03;;
65545;SDS011;52177;55.968;37.498;2023-04-25T02:00:14;10.68;;;6.03;;
65545;SDS011;52177;55.968;37.498;2023-04-25T02:00:44;12.50;;;6.72;;
65545;SDS011;52177;55.968;37.498;2023-04-25T02:01:15;10.70;;;5.80;;
65545;SDS011;52177;55.968;37.498;2023-04-25T02:01:45;12.30;;;6.05;;
65545;SDS011;52177;55.968;37.498;2023-04-25T02:02:15;13.52;;;6.28;;
65545;SDS011;52177;55.968;37.498;2023-04-25T02:02:46;11.75;;;6.30;;
65545;SDS011;52177;55.968;37.498;2023-04-25T02:03:16;14.93;;;6.30;;
65545;SDS011;52177;55.968;37.498;2023-04-25T02:03:46;14.27;;;5.97;;
65545;SDS011;52177;55.968;37.498;2023-04-25T02:04:17;13.52;;;6.82;;
65545;SDS011;52177;55.968;37.498;2023-04-25T02:04:47;13.73;;;6.82;;
65545;SDS011;52177;55.968;37.498;2023-04-25T02:05:17;14.23;;;6.53;;
65545;SDS011;52177;55.968;37.498;2023-04-25T02:05:48;15.85;;;6.13;;
65545;SDS011;52177;55.968;37.498;2023-04-25T02:06:18;19.40;;;6.32;;
65545;SDS011;52177;55.968;37.498;2023-04-25T02:06:48;15.63;;;6.28;;
65545;SDS011;52177;55.968;37.498;2023-04-25T02:07:19;15.05;;;6.47;;
65545;SDS011;52177;55.968;37.498;2023-04-25T02:07:50;14.38;;;6.63;;
65545;SDS011;52177;55.968;37.498;2023-04-25T02:08:20;17.20;;;6.70;;
65545;SDS011;52177;55.968;37.498;2023-04-25T02:08:50;15.13;;;6.35;;
65545;SDS011;52177;55.968;37.498;2023-04-25T02:09:21;15.77;;;6.10;;
65545;SDS011;52177;55.968;37.498;2023-04-25T02:09:51;14.65;;;6.45;;
65545;SDS011;52177;55.968;37.498;2023-04-25T02:10:22;16.80;;;7.13;;
65545;SDS011;52177;55.968;37.498;2023-04-25T02:10:52;11.68;;;6.57;;
65545;SDS011;52177;55.968;37.498;2023-04-25T02:11:22;19.42;;;6.78;;
65545;SDS011;52177;55.968;37.498;2023-04-25T02:11:53;13.48;;;6.68;;
65545;SDS011;52177;55.968;37.498;2023-04-25T02:12:23;13.60;;;6.65;;
65545;SDS011;52177;55.968;37.498;2023-04-25T02:12:56;16.17;;;6.35;;
65545;SDS011;52177;55.968;37.498;2023-04-25T02:13:27;15.85;;;6.82;;
65545;SDS011;52177;55.968;37.498;2023-04-25T02:13:57;16.23;;;6.78;;
65545;SDS011;52177;55.968;37.498;2023-04-25T02:14:27;15.13;;;6.72;;
65545;SDS011;52177;55.968;37.498;2023-04-25T02:14:58;20.42;;;6.97;;
65545;SDS011;52177;55.968;37.498;2023-04-25T02:15:29;18.50;;;6.80;;
65545;SDS011;52177;55.968;37.498;2023-04-25T02:15:59;15.65;;;6.60;;
65545;SDS011;52177;55.968;37.498;2023-04-25T02:16:29;20.42;;;7.20;;
65545;SDS011;52177;55.968;37.498;2023-04-25T02:17:00;16.88;;;6.88;;
65545;SDS011;52177;55.968;37.498;2023-04-25T02:17:30;16.58;;;6.97;;
65545;SDS011;52177;55.968;37.498;2023-04-25T02:18:01;14.70;;;6.40;;
65545;SDS011;52177;55.968;37.498;2023-04-25T02:18:32;12.73;;;6.53;;
65545;SDS011;52177;55.968;37.498;2023-04-25T02:19:03;17.58;;;7.15;;
65545;SDS011;52177;55.968;37.498;2023-04-25T02:19:33;16.83;;;7.35;;
65545;SDS011;52177;55.968;37.498;2023-04-25T02:20:04;16.17;;;6.75;;
65545;SDS011;52177;55.968;37.498;2023-04-25T02:20:35;17.35;;;7.47;;
65545;SDS011;52177;55.968;37.498;2023-04-25T02:21:06;13.52;;;6.80;;
65545;SDS011;52177;55.968;37.498;2023-04-25T02:21:36;16.70;;;6.70;;
65545;SDS011;52177;55.968;37.498;2023-04-25T02:22:07;15.27;;;7.07;;
65545;SDS011;52177;55.968;37.498;2023-04-25T02:22:37;19.60;;;7.72;;
65545;SDS011;52177;55.968;37.498;2023-04-25T02:23:07;13.65;;;7.18;;
65545;SDS011;52177;55.968;37.498;2023-04-25T02:23:38;17.70;;;6.75;;
65545;SDS011;52177;55.968;37.498;2023-04-25T02:24:08;15.73;;;6.55;;
65545;SDS011;52177;55.968;37.498;2023-04-25T02:24:39;14.07;;;7.20;;
65545;SDS011;52177;55.968;37.498;2023-04-25T02:25:09;13.35;;;6.30;;
65545;SDS011;52177;55.968;37.498;2023-04-25T02:25:41;20.77;;;7.43;;
65545;SDS011;52177;55.968;37.498;2023-04-25T02:26:12;19.35;;;7.22;;
65545;SDS011;52177;55.968;37.498;2023-04-25T02:26:43;14.80;;;7.13;;
65545;SDS011;52177;55.968;37.498;2023-04-25T02:27:14;21.15;;;7.13;;
65545;SDS011;52177;55.968;37.498;2023-04-25T02:27:44;19.95;;;7.28;;
65545;SDS011;52177;55.968;37.498;2023-04-25T02:28:15;18.33;;;6.90;;
65545;SDS011;52177;55.968;37.498;2023-04-25T02:28:45;13.63;;;7.03;;
65545;SDS011;52177;55.968;37.498;2023-04-25T02:29:16;16.65;;;6.85;;
65545;SDS011;52177;55.968;37.498;2023-04-25T02:29:46;15.57;;;7.70;;
65545;SDS011;52177;55.968;37.498;2023-04-25T02:30:17;18.05;;;7.63;;
65545;SDS011;52177;55.968;37.498;2023-04-25T02:30:47;19.58;;;7.72;;
65545;SDS011;52177;55.968;37.498;2023-04-25T02:31:17;15.32;;;7.10;;
65545;SDS011;52177;55.968;37.498;2023-04-25T02:31:47;16.48;;;7.15;;
65545;SDS011;52177;55.968;37.498;2023-04-25T02:32:18;13.70;;;7.43;;
65545;SDS011;52177;55.968;37.498;2023-04-25T02:32:48;15.40;;;6.95;;
65545;SDS011;52177;55.968;37.498;2023-04-25T02:33:18;19.77;;;7.95;;
65545;SDS011;52177;55.968;37.498;2023-04-25T02:33:50;14.20;;;6.90;;
65545;SDS011;52177;55.968;37.498;2023-04-25T02:34:21;14.48;;;7.13;;
65545;SDS011;52177;55.968;37.498;2023-04-25T02:34:52;14.68;;;7.55;;
65545;SDS011;52177;55.968;37.498;2023-04-25T02:35:22;17.88;;;7.15;;
65545;SDS011;52177;55.968;37.498;2023-04-25T02:35:52;20.60;;;7.40;;
65545;SDS011;52177;55.968;37.498;2023-04-25T02:36:23;21.65;;;7.43;;
65545;SDS011;52177;55.968;37.498;2023-04-25T02:36:53;17.45;;;7.40;;
65545;SDS011;52177;55.968;37.498;2023-04-25T02:37:25;15.57;;;7.15;;
65545;SDS011;52177;55.968;37.498;2023-04-25T02:37:55;18.42;;;7.20;;
65545;SDS011;52177;55.968;37.498;2023-04-25T02:38:25;17.45;;;6.80;;
65545;SDS011;52177;55.968;37.498;2023-04-25T02:38:56;14.60;;;6.95;;
65545;SDS011;52177;55.968;37.498;2023-04-25T02:39:26;18.15;;;7.35;;
65545;SDS011;52177;55.968;37.498;2023-04-25T02:39:57;16.13;;;7.47;;
65545;SDS011;52177;55.968;37.498;2023-04-25T02:40:27;18.55;;;7.63;;
65545;SDS011;52177;55.968;37.498;2023-04-25T02:40:57;16.30;;;8.05;;
65545;SDS011;52177;55.968;37.498;2023-04-25T02:41:28;24.02;;;7.65;;
65545;SDS011;52177;55.968;37.498;2023-04-25T02:41:59;14.77;;;7.15;;
65545;SDS011;52177;55.968;37.498;2023-04-25T02:42:31;13.52;;;7.43;;
65545;SDS011;52177;55.968;37.498;2023-04-25T02:43:01;13.10;;;7.13;;
65545;SDS011;52177;55.968;37.498;2023-04-25T02:43:32;18.77;;;7.60;;
65545;SDS011;52177;55.968;37.498;2023-04-25T02:44:02;13.13;;;7.07;;
65545;SDS011;52177;55.968;37.498;2023-04-25T02:44:32;15.57;;;7.43;;
65545;SDS011;52177;55.968;37.498;2023-04-25T02:45:03;14.13;;;7.43;;
65545;SDS011;52177;55.968;37.498;2023-04-25T02:45:33;15.93;;;7.90;;
65545;SDS011;52177;55.968;37.498;2023-04-25T02:46:04;15.35;;;7.47;;
65545;SDS011;52177;55.968;37.498;2023-04-25T02:46:35;15.05;;;7.20;;
65545;SDS011;52177;55.968;37.498;2023-04-25T02:47:05;15.98;;;7.45;;
65545;SDS011;52177;55.968;37.498;2023-04-25T02:47:36;18.77;;;7.57;;
65545;SDS011;52177;55.968;37.498;2023-04-25T02:48:06;18.70;;;7.53;;
65545;SDS011;52177;55.968;37.498;2023-04-25T02:48:37;18.23;;;7.60;;
65545;SDS011;52177;55.968;37.498;2023-04-25T02:49:07;15.73;;;7.38;;
65545;SDS011;52177;55.968;37.498;2023-04-25T02:49:37;22.50;;;7.43;;
65545;SDS011;52177;55.968;37.498;2023-04-25T02:50:08;20.38;;;8.20;;
65545;SDS011;52177;55.968;37.498;2023-04-25T02:50:38;17.08;;;7.25;;
65545;SDS011;52177;55.968;37.498;2023-04-25T02:51:09;14.45;;;7.15;;
65545;SDS011;52177;55.968;37.498;2023-04-25T02:51:39;22.00;;;7.72;;
65545;SDS011;52177;55.968;37.498;2023-04-25T02:52:10;17.05;;;7.63;;
65545;SDS011;52177;55.968;37.498;2023-04-25T02:52:40;17.35;;;7.90;;
65545;SDS011;52177;55.968;37.498;2023-04-25T02:53:10;16.45;;;7.45;;
65545;SDS011;52177;55.968;37.498;2023-04-25T02:53:41;17.30;;;7.70;;
65545;SDS011;52177;55.968;37.498;2023-04-25T02:54:11;13.75;;;7.43;;
65545;SDS011;52177;55.968;37.498;2023-04-25T02:54:42;16.65;;;8.30;;
65545;SDS011;52177;55.968;37.498;2023-04-25T02:55:13;18.63;;;7.38;;
65545;SDS011;52177;55.968;37.498;2023-04-25T02:55:43;16.50;;;7.68;;
65545;SDS011;52177;55.968;37.498;2023-04-25T02:56:14;21.77;;;7.70;;
65545;SDS011;52177;55.968;37.498;2023-04-25T02:56:44;26.48;;;7.85;;
65545;SDS011;52177;55.968;37.498;2023-04-25T02:57:14;13.63;;;7.32;;
65545;SDS011;52177;55.968;37.498;2023-04-25T02:57:45;19.33;;;7.95;;
65545;SDS011;52177;55.968;37.498;2023-04-25T02:58:15;14.43;;;7.75;;
65545;SDS011;52177;55.968;37.498;2023-04-25T02:58:45;16.08;;;7.55;;
65545;SDS011;52177;55.968;37.498;2023-04-25T02:59:16;20.02;;;8.00;;
65545;SDS011;52177;55.968;37.498;2023-04-25T02:59:46;16.85;;;7.43;;
65545;SDS011;52177;55.968;37.498;2023-04-25T03:00:17;19.08;;;8.02;;
65545;SDS011;52177;55.968;37.498;2023-04-25T03:00:47;19.25;;;7.85;;